7NC weather

Donald's Air Park Inc. Airport
Plymouth, North Carolina, United States

Public forecast

Using degrees Fahrenheit for public forecast. Weather courtesy of forecast.io.

Closest aviation weather report (METAR) to Donald's Air Park Inc. Airport

Closest report is Northeastern Regional Airport, 18.4 nm (34.0 km) NNE. Retrieved 2020/01/28 22:35 UTC (0 seconds ago):

KEDE 282235Z AUTO 02003KT 10SM SCT050 08/01 A2999 RMK AO2 T00800008

Closest aviation forecast (TAF) to Donald's Air Park Inc. Airport

Closest forecast is Pitt Greenville Airport, 35.4 nm (65.5 km) W. Retrieved 2020/01/28 18:24 UTC (4 hours ago):

TAF KPGV 281723Z 2818/2918 33007KT P6SM SKC FM291200 01005KT P6SM FEW250 AMD LTD TO CLD VIS AND WIND